Forside
METAR-TAF:

METAR-TAF

Lufthavne :

Logan International Airport

Boston, Massachusetts, USA

Breddekreds: 42-21-38N, længdekreds: 071-00-38W, højde: 6 m

Aktuelle vejr

Denne rapport blev lavet for 1 time og 5 minutter siden, kl. 07:54 UTC
Vind 5 kt fra vest
Temperatur 2°C
Fugtighed 44%
Tryk 1029 hPa
Sigt: 16.1 km
skyfri

METAR: KBOS 200754Z 28005KT 10SM CLR 02/M09 A3040 RMK AO2 SLP292 T00221094 $

Tid: 04:59 (08:59 UTC)

Vejrudsigter

Denne rapport blev lavet for 29 minutter siden, kl. 08:30 UTC
Foreløbig gælder fra 20 på 09 UTC til 21 på 12 UTC
Vind 4 kt fra vestnordvest
Sigt: 10 km
skyfri
Fra 20 på 1400 UTC
Vind 6 kt fra sydsydøst
Sigt: 10 km
Spredte skyer i en højde af 7000 ft
Fra 20 på 1700 UTC
Vind 10 kt fra syd
Sigt: 10 km
Brudte skyer i en højde af 6000 ft
Fra 20 på 2300 UTC
Vind 12 kt fra sydsydvest
Sigt: 10 km
Nogle få skyer i en højde af 15000 ft

TAF: KBOS 200830Z 2009/2112 29004KT P6SM SKC FM201400 16006KT P6SM SCT070 FM201700 19010KT P6SM BKN060 FM202300 20012KT P6SM FEW150

Vejrobservationer og prognoser fra mere end 4000 lufthavne (METAR og TAF).

De gule og røde prikker repræsenterer de meteorologiske stationer.

Flyt musen over at se navnet på stationen.

Så klik over at se vejr observationer og prognoser.

At skifte det kort: Klik på de grønne knapper med et sort kors for at zoome ind; på den grønne knap med en bindestreg for at zoome ud; eller på de grønne pile for tilstødende kort.


METAR-TAF: